Appleton, Maine
Current Conditions -  °F | °C
As of 11:15 AM on Thursday 23 Oct 2014 (Local Time) from KRKD Reporting Station
Overcast Overcast  
Wind Chill: 52°   Ceiling: 800
Heat Index: 52°   Visibility: 5mi
Dew Point: 52°   Wind: 24mph
Humidity: 100%   Direction: 40°NE
Pressure: 29.78"   Gusts: 32mph
Location:  44.2596°N, 69.2573°W
Report Text: KRKD 231515Z AUTO 04021G28KT 5SM BKN008 OVC014 11/11 A2978 RMK AO1 P0002
Loading
Personal Weather Stations






























Interactive Weather Map New forecast layout! Learn more

10-Day Weather Forecast

Advertisements
Track Severe Weather on mobile